sensor_id;sensor_type;location;lat;lon;timestamp;P1;durP1;ratioP1;P2;durP2;ratioP2
41233;SDS011;26968;42.686;23.352;2022-08-21T00:01:56;23.27;;;14.23;;
41233;SDS011;26968;42.686;23.352;2022-08-21T00:04:21;22.75;;;14.48;;
41233;SDS011;26968;42.686;23.352;2022-08-21T00:06:47;21.08;;;14.20;;
41233;SDS011;26968;42.686;23.352;2022-08-21T00:09:12;22.30;;;13.57;;
41233;SDS011;26968;42.686;23.352;2022-08-21T00:11:38;22.23;;;14.48;;
41233;SDS011;26968;42.686;23.352;2022-08-21T00:14:06;22.75;;;13.10;;
41233;SDS011;26968;42.686;23.352;2022-08-21T00:16:33;23.92;;;15.18;;
41233;SDS011;26968;42.686;23.352;2022-08-21T00:18:58;24.38;;;15.20;;
41233;SDS011;26968;42.686;23.352;2022-08-21T00:21:24;30.42;;;16.30;;
41233;SDS011;26968;42.686;23.352;2022-08-21T00:23:50;27.85;;;15.57;;
41233;SDS011;26968;42.686;23.352;2022-08-21T00:26:16;22.67;;;14.55;;
41233;SDS011;26968;42.686;23.352;2022-08-21T00:28:41;23.90;;;15.52;;
41233;SDS011;26968;42.686;23.352;2022-08-21T00:31:07;33.00;;;15.98;;
41233;SDS011;26968;42.686;23.352;2022-08-21T00:33:32;28.10;;;15.77;;
41233;SDS011;26968;42.686;23.352;2022-08-21T00:35:58;27.38;;;15.48;;
41233;SDS011;26968;42.686;23.352;2022-08-21T00:38:25;22.60;;;14.20;;
41233;SDS011;26968;42.686;23.352;2022-08-21T00:40:52;23.58;;;14.15;;
41233;SDS011;26968;42.686;23.352;2022-08-21T00:43:22;23.20;;;14.35;;
41233;SDS011;26968;42.686;23.352;2022-08-21T00:45:49;31.55;;;15.68;;
41233;SDS011;26968;42.686;23.352;2022-08-21T00:48:15;25.33;;;15.10;;
41233;SDS011;26968;42.686;23.352;2022-08-21T00:51:03;24.25;;;15.20;;
41233;SDS011;26968;42.686;23.352;2022-08-21T00:53:41;24.58;;;14.68;;
41233;SDS011;26968;42.686;23.352;2022-08-21T00:56:09;27.17;;;15.48;;
41233;SDS011;26968;42.686;23.352;2022-08-21T00:58:36;29.27;;;14.32;;
41233;SDS011;26968;42.686;23.352;2022-08-21T01:01:04;17.98;;;11.82;;
41233;SDS011;26968;42.686;23.352;2022-08-21T01:03:31;27.38;;;13.95;;
41233;SDS011;26968;42.686;23.352;2022-08-21T01:05:57;25.75;;;13.32;;
41233;SDS011;26968;42.686;23.352;2022-08-21T01:08:23;24.77;;;13.30;;
41233;SDS011;26968;42.686;23.352;2022-08-21T01:10:49;26.15;;;14.57;;
41233;SDS011;26968;42.686;23.352;2022-08-21T01:13:17;25.35;;;13.93;;
41233;SDS011;26968;42.686;23.352;2022-08-21T01:15:44;26.23;;;14.35;;
41233;SDS011;26968;42.686;23.352;2022-08-21T01:18:13;23.15;;;14.15;;
41233;SDS011;26968;42.686;23.352;2022-08-21T01:20:42;26.80;;;14.60;;
41233;SDS011;26968;42.686;23.352;2022-08-21T01:23:11;31.30;;;16.25;;
41233;SDS011;26968;42.686;23.352;2022-08-21T01:25:36;23.80;;;15.60;;
41233;SDS011;26968;42.686;23.352;2022-08-21T01:28:07;30.35;;;15.80;;
41233;SDS011;26968;42.686;23.352;2022-08-21T01:30:40;29.92;;;16.50;;
41233;SDS011;26968;42.686;23.352;2022-08-21T01:33:08;29.20;;;17.13;;
41233;SDS011;26968;42.686;23.352;2022-08-21T01:35:34;25.73;;;15.43;;
41233;SDS011;26968;42.686;23.352;2022-08-21T01:37:59;33.90;;;17.48;;
41233;SDS011;26968;42.686;23.352;2022-08-21T01:40:25;32.17;;;17.40;;
41233;SDS011;26968;42.686;23.352;2022-08-21T01:42:51;30.55;;;18.23;;
41233;SDS011;26968;42.686;23.352;2022-08-21T01:45:18;40.92;;;19.00;;
41233;SDS011;26968;42.686;23.352;2022-08-21T01:47:44;38.10;;;19.92;;
41233;SDS011;26968;42.686;23.352;2022-08-21T01:50:11;35.55;;;21.17;;
41233;SDS011;26968;42.686;23.352;2022-08-21T01:52:39;34.45;;;19.42;;
41233;SDS011;26968;42.686;23.352;2022-08-21T01:55:06;41.28;;;20.63;;
41233;SDS011;26968;42.686;23.352;2022-08-21T01:57:32;46.45;;;23.45;;
41233;SDS011;26968;42.686;23.352;2022-08-21T01:59:59;56.70;;;28.55;;
41233;SDS011;26968;42.686;23.352;2022-08-21T02:02:25;55.58;;;30.58;;
41233;SDS011;26968;42.686;23.352;2022-08-21T02:04:50;51.97;;;29.27;;
41233;SDS011;26968;42.686;23.352;2022-08-21T02:07:16;51.13;;;30.45;;
41233;SDS011;26968;42.686;23.352;2022-08-21T02:09:41;54.10;;;30.60;;
41233;SDS011;26968;42.686;23.352;2022-08-21T02:12:08;52.35;;;28.48;;
41233;SDS011;26968;42.686;23.352;2022-08-21T02:14:35;53.60;;;29.55;;
41233;SDS011;26968;42.686;23.352;2022-08-21T02:17:01;52.20;;;28.90;;
41233;SDS011;26968;42.686;23.352;2022-08-21T02:19:27;53.83;;;30.67;;
41233;SDS011;26968;42.686;23.352;2022-08-21T02:21:52;51.38;;;29.92;;
41233;SDS011;26968;42.686;23.352;2022-08-21T02:24:18;47.58;;;27.92;;
41233;SDS011;26968;42.686;23.352;2022-08-21T02:26:43;50.10;;;30.35;;
41233;SDS011;26968;42.686;23.352;2022-08-21T02:29:09;52.67;;;29.60;;
41233;SDS011;26968;42.686;23.352;2022-08-21T02:31:34;53.00;;;29.35;;
41233;SDS011;26968;42.686;23.352;2022-08-21T02:34:00;48.72;;;29.15;;
41233;SDS011;26968;42.686;23.352;2022-08-21T02:36:25;46.85;;;28.60;;
41233;SDS011;26968;42.686;23.352;2022-08-21T02:38:51;52.85;;;28.90;;
41233;SDS011;26968;42.686;23.352;2022-08-21T02:41:18;53.10;;;30.80;;
41233;SDS011;26968;42.686;23.352;2022-08-21T02:43:45;52.35;;;28.90;;
41233;SDS011;26968;42.686;23.352;2022-08-21T02:46:13;52.22;;;30.60;;
41233;SDS011;26968;42.686;23.352;2022-08-21T02:48:40;49.40;;;30.73;;
41233;SDS011;26968;42.686;23.352;2022-08-21T02:51:07;53.95;;;31.05;;
41233;SDS011;26968;42.686;23.352;2022-08-21T02:53:37;53.45;;;29.05;;
41233;SDS011;26968;42.686;23.352;2022-08-21T02:56:05;55.65;;;29.33;;
41233;SDS011;26968;42.686;23.352;2022-08-21T02:58:38;50.88;;;28.50;;
41233;SDS011;26968;42.686;23.352;2022-08-21T03:01:07;59.58;;;29.67;;
41233;SDS011;26968;42.686;23.352;2022-08-21T03:03:37;55.95;;;28.38;;
41233;SDS011;26968;42.686;23.352;2022-08-21T03:06:04;60.42;;;29.88;;
41233;SDS011;26968;42.686;23.352;2022-08-21T03:08:31;47.88;;;27.63;;
41233;SDS011;26968;42.686;23.352;2022-08-21T03:10:56;43.65;;;26.65;;
41233;SDS011;26968;42.686;23.352;2022-08-21T03:13:22;48.95;;;27.63;;
41233;SDS011;26968;42.686;23.352;2022-08-21T03:15:49;45.70;;;26.58;;
41233;SDS011;26968;42.686;23.352;2022-08-21T03:18:14;39.42;;;25.33;;
41233;SDS011;26968;42.686;23.352;2022-08-21T03:20:41;49.20;;;25.48;;
41233;SDS011;26968;42.686;23.352;2022-08-21T03:23:07;44.60;;;24.63;;
41233;SDS011;26968;42.686;23.352;2022-08-21T03:25:33;40.78;;;22.55;;
41233;SDS011;26968;42.686;23.352;2022-08-21T03:28:01;40.38;;;21.42;;
41233;SDS011;26968;42.686;23.352;2022-08-21T03:30:28;35.53;;;20.52;;
41233;SDS011;26968;42.686;23.352;2022-08-21T03:32:53;34.38;;;20.77;;
41233;SDS011;26968;42.686;23.352;2022-08-21T03:35:19;36.55;;;21.95;;
41233;SDS011;26968;42.686;23.352;2022-08-21T03:37:45;35.63;;;22.05;;
41233;SDS011;26968;42.686;23.352;2022-08-21T03:40:11;37.25;;;21.83;;
41233;SDS011;26968;42.686;23.352;2022-08-21T03:42:39;36.75;;;21.08;;
41233;SDS011;26968;42.686;23.352;2022-08-21T03:45:05;38.63;;;21.52;;
41233;SDS011;26968;42.686;23.352;2022-08-21T03:47:31;35.35;;;20.30;;
41233;SDS011;26968;42.686;23.352;2022-08-21T03:49:57;29.13;;;18.25;;
41233;SDS011;26968;42.686;23.352;2022-08-21T03:52:22;31.48;;;17.75;;
41233;SDS011;26968;42.686;23.352;2022-08-21T03:54:48;30.08;;;17.25;;
41233;SDS011;26968;42.686;23.352;2022-08-21T03:57:15;35.78;;;18.05;;
41233;SDS011;26968;42.686;23.352;2022-08-21T03:59:40;30.10;;;17.00;;
41233;SDS011;26968;42.686;23.352;2022-08-21T04:02:07;31.45;;;16.33;;
41233;SDS011;26968;42.686;23.352;2022-08-21T04:04:33;23.25;;;14.95;;
41233;SDS011;26968;42.686;23.352;2022-08-21T04:06:59;30.30;;;15.40;;
41233;SDS011;26968;42.686;23.352;2022-08-21T04:09:25;21.48;;;13.00;;
41233;SDS011;26968;42.686;23.352;2022-08-21T04:11:51;23.52;;;14.00;;
41233;SDS011;26968;42.686;23.352;2022-08-21T04:14:17;27.42;;;13.50;;
41233;SDS011;26968;42.686;23.352;2022-08-21T04:16:43;21.20;;;11.50;;
41233;SDS011;26968;42.686;23.352;2022-08-21T04:19:09;17.70;;;10.85;;
41233;SDS011;26968;42.686;23.352;2022-08-21T04:21:36;16.48;;;10.95;;
41233;SDS011;26968;42.686;23.352;2022-08-21T04:24:03;20.42;;;10.68;;
41233;SDS011;26968;42.686;23.352;2022-08-21T04:26:29;21.77;;;10.85;;
41233;SDS011;26968;42.686;23.352;2022-08-21T04:28:56;28.25;;;11.60;;
41233;SDS011;26968;42.686;23.352;2022-08-21T04:31:22;18.45;;;10.77;;
41233;SDS011;26968;42.686;23.352;2022-08-21T04:33:48;17.90;;;10.73;;
41233;SDS011;26968;42.686;23.352;2022-08-21T04:36:13;18.80;;;11.85;;
41233;SDS011;26968;42.686;23.352;2022-08-21T04:38:39;20.00;;;10.60;;
41233;SDS011;26968;42.686;23.352;2022-08-21T04:41:05;19.70;;;11.60;;
41233;SDS011;26968;42.686;23.352;2022-08-21T04:43:31;26.10;;;12.05;;
41233;SDS011;26968;42.686;23.352;2022-08-21T04:45:57;22.10;;;11.77;;
41233;SDS011;26968;42.686;23.352;2022-08-21T04:48:22;18.60;;;11.70;;
41233;SDS011;26968;42.686;23.352;2022-08-21T04:56:18;20.15;;;11.82;;
41233;SDS011;26968;42.686;23.352;2022-08-21T04:58:58;22.15;;;12.23;;
41233;SDS011;26968;42.686;23.352;2022-08-21T05:01:27;25.90;;;13.27;;
41233;SDS011;26968;42.686;23.352;2022-08-21T05:03:56;28.40;;;13.30;;
41233;SDS011;26968;42.686;23.352;2022-08-21T05:06:24;21.05;;;12.65;;
41233;SDS011;26968;42.686;23.352;2022-08-21T05:08:53;22.48;;;13.65;;
41233;SDS011;26968;42.686;23.352;2022-08-21T05:11:20;30.80;;;13.60;;
41233;SDS011;26968;42.686;23.352;2022-08-21T05:13:47;23.27;;;13.63;;
41233;SDS011;26968;42.686;23.352;2022-08-21T05:16:13;24.20;;;14.15;;
41233;SDS011;26968;42.686;23.352;2022-08-21T05:18:40;23.67;;;14.18;;
41233;SDS011;26968;42.686;23.352;2022-08-21T05:21:06;25.42;;;13.73;;
41233;SDS011;26968;42.686;23.352;2022-08-21T05:23:32;24.98;;;14.45;;
41233;SDS011;26968;42.686;23.352;2022-08-21T05:25:57;24.08;;;14.07;;
41233;SDS011;26968;42.686;23.352;2022-08-21T05:28:23;24.33;;;13.65;;
41233;SDS011;26968;42.686;23.352;2022-08-21T05:30:49;30.02;;;14.25;;
41233;SDS011;26968;42.686;23.352;2022-08-21T05:33:14;27.20;;;14.80;;
41233;SDS011;26968;42.686;23.352;2022-08-21T05:35:40;31.17;;;15.07;;
41233;SDS011;26968;42.686;23.352;2022-08-21T05:38:06;27.23;;;15.27;;
41233;SDS011;26968;42.686;23.352;2022-08-21T05:40:32;28.55;;;15.55;;
41233;SDS011;26968;42.686;23.352;2022-08-21T05:42:58;24.52;;;15.18;;
41233;SDS011;26968;42.686;23.352;2022-08-21T05:45:31;29.55;;;15.52;;
41233;SDS011;26968;42.686;23.352;2022-08-21T05:47:58;29.42;;;15.02;;
41233;SDS011;26968;42.686;23.352;2022-08-21T05:50:31;30.45;;;14.80;;
41233;SDS011;26968;42.686;23.352;2022-08-21T05:52:56;20.52;;;14.27;;
41233;SDS011;26968;42.686;23.352;2022-08-21T05:55:22;25.77;;;13.75;;
41233;SDS011;26968;42.686;23.352;2022-08-21T05:57:47;27.42;;;13.20;;
41233;SDS011;26968;42.686;23.352;2022-08-21T06:00:13;26.58;;;14.13;;
41233;SDS011;26968;42.686;23.352;2022-08-21T06:02:39;23.70;;;13.77;;
41233;SDS011;26968;42.686;23.352;2022-08-21T06:05:05;18.92;;;11.60;;
41233;SDS011;26968;42.686;23.352;2022-08-21T06:07:31;26.98;;;12.98;;
41233;SDS011;26968;42.686;23.352;2022-08-21T06:09:57;19.15;;;12.43;;
41233;SDS011;26968;42.686;23.352;2022-08-21T06:12:22;23.70;;;12.68;;
41233;SDS011;26968;42.686;23.352;2022-08-21T06:14:48;20.35;;;12.43;;
41233;SDS011;26968;42.686;23.352;2022-08-21T06:17:15;22.02;;;14.20;;
41233;SDS011;26968;42.686;23.352;2022-08-21T06:19:41;26.50;;;13.05;;
41233;SDS011;26968;42.686;23.352;2022-08-21T06:22:06;25.52;;;13.55;;
41233;SDS011;26968;42.686;23.352;2022-08-21T06:24:32;19.35;;;13.43;;
41233;SDS011;26968;42.686;23.352;2022-08-21T06:26:57;28.27;;;14.52;;
41233;SDS011;26968;42.686;23.352;2022-08-21T06:29:28;18.20;;;12.23;;
41233;SDS011;26968;42.686;23.352;2022-08-21T06:31:53;24.48;;;13.52;;
41233;SDS011;26968;42.686;23.352;2022-08-21T06:34:19;20.95;;;13.88;;
41233;SDS011;26968;42.686;23.352;2022-08-21T06:36:44;17.92;;;12.25;;
41233;SDS011;26968;42.686;23.352;2022-08-21T06:39:10;25.42;;;14.00;;
41233;SDS011;26968;42.686;23.352;2022-08-21T06:41:35;21.27;;;12.90;;
41233;SDS011;26968;42.686;23.352;2022-08-21T06:44:01;24.38;;;12.10;;
41233;SDS011;26968;42.686;23.352;2022-08-21T06:46:28;22.48;;;12.43;;
41233;SDS011;26968;42.686;23.352;2022-08-21T06:48:54;24.90;;;12.48;;
41233;SDS011;26968;42.686;23.352;2022-08-21T06:51:21;27.00;;;13.27;;
41233;SDS011;26968;42.686;23.352;2022-08-21T06:53:47;21.08;;;11.43;;
41233;SDS011;26968;42.686;23.352;2022-08-21T06:56:13;19.27;;;10.80;;
41233;SDS011;26968;42.686;23.352;2022-08-21T06:58:39;24.27;;;13.02;;
41233;SDS011;26968;42.686;23.352;2022-08-21T07:01:04;20.67;;;11.38;;
41233;SDS011;26968;42.686;23.352;2022-08-21T07:03:33;20.17;;;11.85;;
41233;SDS011;26968;42.686;23.352;2022-08-21T07:06:06;25.05;;;11.88;;
41233;SDS011;26968;42.686;23.352;2022-08-21T07:08:34;24.10;;;10.95;;
41233;SDS011;26968;42.686;23.352;2022-08-21T07:11:00;22.20;;;11.10;;
41233;SDS011;26968;42.686;23.352;2022-08-21T07:13:28;21.20;;;10.77;;
41233;SDS011;26968;42.686;23.352;2022-08-21T07:15:54;17.92;;;10.93;;
41233;SDS011;26968;42.686;23.352;2022-08-21T07:18:19;27.80;;;10.93;;
41233;SDS011;26968;42.686;23.352;2022-08-21T07:20:45;20.70;;;10.05;;
41233;SDS011;26968;42.686;23.352;2022-08-21T07:23:12;21.05;;;11.95;;
41233;SDS011;26968;42.686;23.352;2022-08-21T07:25:47;23.77;;;11.18;;
41233;SDS011;26968;42.686;23.352;2022-08-21T07:28:13;22.02;;;11.25;;
41233;SDS011;26968;42.686;23.352;2022-08-21T07:30:38;23.75;;;11.40;;
41233;SDS011;26968;42.686;23.352;2022-08-21T07:33:04;19.00;;;10.00;;
41233;SDS011;26968;42.686;23.352;2022-08-21T07:35:29;20.95;;;9.32;;
41233;SDS011;26968;42.686;23.352;2022-08-21T07:37:56;26.52;;;10.48;;
41233;SDS011;26968;42.686;23.352;2022-08-21T07:40:21;22.60;;;9.73;;
41233;SDS011;26968;42.686;23.352;2022-08-21T07:42:47;17.65;;;8.95;;
41233;SDS011;26968;42.686;23.352;2022-08-21T07:45:16;18.02;;;9.85;;
41233;SDS011;26968;42.686;23.352;2022-08-21T07:47:49;20.33;;;8.20;;
41233;SDS011;26968;42.686;23.352;2022-08-21T07:50:15;21.42;;;10.93;;
41233;SDS011;26968;42.686;23.352;2022-08-21T07:52:42;20.65;;;9.32;;
41233;SDS011;26968;42.686;23.352;2022-08-21T07:55:11;27.38;;;11.38;;
41233;SDS011;26968;42.686;23.352;2022-08-21T07:57:40;20.00;;;11.80;;
41233;SDS011;26968;42.686;23.352;2022-08-21T08:00:07;19.60;;;11.88;;
41233;SDS011;26968;42.686;23.352;2022-08-21T08:02:36;21.95;;;11.27;;
41233;SDS011;26968;42.686;23.352;2022-08-21T08:05:05;22.73;;;12.15;;
41233;SDS011;26968;42.686;23.352;2022-08-21T08:07:34;23.20;;;11.65;;
41233;SDS011;26968;42.686;23.352;2022-08-21T08:09:59;20.92;;;10.73;;
41233;SDS011;26968;42.686;23.352;2022-08-21T08:12:25;26.25;;;11.35;;
41233;SDS011;26968;42.686;23.352;2022-08-21T08:14:58;20.13;;;11.27;;
41233;SDS011;26968;42.686;23.352;2022-08-21T08:17:25;24.88;;;11.52;;
41233;SDS011;26968;42.686;23.352;2022-08-21T08:19:51;18.58;;;11.13;;
41233;SDS011;26968;42.686;23.352;2022-08-21T08:22:18;22.10;;;10.75;;
41233;SDS011;26968;42.686;23.352;2022-08-21T08:24:46;29.73;;;13.85;;
41233;SDS011;26968;42.686;23.352;2022-08-21T08:27:13;21.02;;;13.35;;
41233;SDS011;26968;42.686;23.352;2022-08-21T08:29:40;23.05;;;13.10;;
41233;SDS011;26968;42.686;23.352;2022-08-21T08:32:05;26.17;;;13.00;;
41233;SDS011;26968;42.686;23.352;2022-08-21T08:34:32;21.48;;;12.75;;
41233;SDS011;26968;42.686;23.352;2022-08-21T08:36:58;19.90;;;12.18;;
41233;SDS011;26968;42.686;23.352;2022-08-21T08:39:24;26.20;;;12.90;;
41233;SDS011;26968;42.686;23.352;2022-08-21T08:41:51;22.25;;;12.50;;
41233;SDS011;26968;42.686;23.352;2022-08-21T08:44:21;23.27;;;12.43;;
41233;SDS011;26968;42.686;23.352;2022-08-21T08:46:47;22.73;;;13.10;;
41233;SDS011;26968;42.686;23.352;2022-08-21T08:49:18;21.40;;;12.00;;
41233;SDS011;26968;42.686;23.352;2022-08-21T08:52:05;29.92;;;12.95;;
41233;SDS011;26968;42.686;23.352;2022-08-21T08:54:45;19.80;;;12.20;;
41233;SDS011;26968;42.686;23.352;2022-08-21T08:57:17;23.95;;;11.60;;
41233;SDS011;26968;42.686;23.352;2022-08-21T08:59:48;19.40;;;9.93;;
41233;SDS011;26968;42.686;23.352;2022-08-21T09:02:17;15.60;;;9.13;;
41233;SDS011;26968;42.686;23.352;2022-08-21T09:04:45;17.75;;;8.48;;
41233;SDS011;26968;42.686;23.352;2022-08-21T09:07:20;20.77;;;9.30;;
41233;SDS011;26968;42.686;23.352;2022-08-21T09:10:05;19.08;;;8.90;;
41233;SDS011;26968;42.686;23.352;2022-08-21T09:12:56;13.85;;;8.45;;
41233;SDS011;26968;42.686;23.352;2022-08-21T09:16:18;16.55;;;8.32;;
41233;SDS011;26968;42.686;23.352;2022-08-21T09:21:16;14.00;;;8.13;;
41233;SDS011;26968;42.686;23.352;2022-08-21T09:23:59;21.05;;;7.78;;
41233;SDS011;26968;42.686;23.352;2022-08-21T09:27:03;15.40;;;8.20;;
41233;SDS011;26968;42.686;23.352;2022-08-21T09:29:42;22.75;;;7.93;;
41233;SDS011;26968;42.686;23.352;2022-08-21T09:32:23;17.52;;;7.55;;
41233;SDS011;26968;42.686;23.352;2022-08-21T09:37:58;17.48;;;8.10;;
41233;SDS011;26968;42.686;23.352;2022-08-21T09:40:33;17.85;;;8.13;;
41233;SDS011;26968;42.686;23.352;2022-08-21T09:45:36;13.35;;;7.90;;
41233;SDS011;26968;42.686;23.352;2022-08-21T09:48:10;13.98;;;7.60;;
41233;SDS011;26968;42.686;23.352;2022-08-21T09:50:47;13.85;;;7.88;;
41233;SDS011;26968;42.686;23.352;2022-08-21T09:55:56;15.40;;;6.68;;
41233;SDS011;26968;42.686;23.352;2022-08-21T09:58:45;9.13;;;6.25;;
41233;SDS011;26968;42.686;23.352;2022-08-21T10:01:20;12.35;;;6.47;;
41233;SDS011;26968;42.686;23.352;2022-08-21T10:03:48;13.38;;;6.85;;
41233;SDS011;26968;42.686;23.352;2022-08-21T10:06:22;14.88;;;6.68;;
41233;SDS011;26968;42.686;23.352;2022-08-21T10:09:06;16.67;;;7.38;;
41233;SDS011;26968;42.686;23.352;2022-08-21T10:11:34;13.40;;;7.53;;
41233;SDS011;26968;42.686;23.352;2022-08-21T10:17:18;13.30;;;6.60;;
41233;SDS011;26968;42.686;23.352;2022-08-21T10:20:07;13.73;;;6.40;;
41233;SDS011;26968;42.686;23.352;2022-08-21T10:25:21;18.95;;;6.82;;
41233;SDS011;26968;42.686;23.352;2022-08-21T10:33:39;11.10;;;7.40;;
41233;SDS011;26968;42.686;23.352;2022-08-21T10:36:21;11.95;;;6.38;;
41233;SDS011;26968;42.686;23.352;2022-08-21T10:47:01;15.65;;;6.65;;
41233;SDS011;26968;42.686;23.352;2022-08-21T10:54:56;14.95;;;7.22;;
41233;SDS011;26968;42.686;23.352;2022-08-21T11:00:39;12.80;;;5.57;;
41233;SDS011;26968;42.686;23.352;2022-08-21T11:03:11;13.15;;;6.00;;
41233;SDS011;26968;42.686;23.352;2022-08-21T11:05:51;14.30;;;5.65;;
41233;SDS011;26968;42.686;23.352;2022-08-21T11:08:24;15.13;;;5.95;;
41233;SDS011;26968;42.686;23.352;2022-08-21T11:10:59;17.80;;;6.63;;
41233;SDS011;26968;42.686;23.352;2022-08-21T11:19:08;15.65;;;5.20;;
41233;SDS011;26968;42.686;23.352;2022-08-21T11:24:27;13.80;;;4.82;;
41233;SDS011;26968;42.686;23.352;2022-08-21T11:30:06;9.93;;;4.45;;
41233;SDS011;26968;42.686;23.352;2022-08-21T11:35:39;10.63;;;4.95;;
41233;SDS011;26968;42.686;23.352;2022-08-21T11:40:51;10.50;;;4.90;;
41233;SDS011;26968;42.686;23.352;2022-08-21T11:43:40;9.55;;;4.72;;
41233;SDS011;26968;42.686;23.352;2022-08-21T11:54:37;12.70;;;5.20;;
41233;SDS011;26968;42.686;23.352;2022-08-21T12:00:05;9.57;;;4.28;;
41233;SDS011;26968;42.686;23.352;2022-08-21T12:02:34;13.93;;;4.68;;
41233;SDS011;26968;42.686;23.352;2022-08-21T12:08:39;8.23;;;4.97;;
41233;SDS011;26968;42.686;23.352;2022-08-21T12:14:11;13.18;;;5.80;;
41233;SDS011;26968;42.686;23.352;2022-08-21T12:16:40;13.68;;;5.57;;
41233;SDS011;26968;42.686;23.352;2022-08-21T12:21:51;9.32;;;5.57;;
41233;SDS011;26968;42.686;23.352;2022-08-21T12:24:33;10.65;;;6.03;;
41233;SDS011;26968;42.686;23.352;2022-08-21T12:29:51;15.30;;;5.47;;
41233;SDS011;26968;42.686;23.352;2022-08-21T12:32:27;15.35;;;6.20;;
41233;SDS011;26968;42.686;23.352;2022-08-21T12:34:57;12.38;;;6.10;;
41233;SDS011;26968;42.686;23.352;2022-08-21T12:37:39;13.75;;;6.75;;
41233;SDS011;26968;42.686;23.352;2022-08-21T12:40:20;12.25;;;5.82;;
41233;SDS011;26968;42.686;23.352;2022-08-21T12:42:49;13.05;;;5.82;;
41233;SDS011;26968;42.686;23.352;2022-08-21T12:48:09;9.80;;;6.13;;
41233;SDS011;26968;42.686;23.352;2022-08-21T12:50:56;11.52;;;5.90;;
41233;SDS011;26968;42.686;23.352;2022-08-21T12:53:31;12.85;;;6.20;;
41233;SDS011;26968;42.686;23.352;2022-08-21T12:56:08;12.73;;;5.90;;
41233;SDS011;26968;42.686;23.352;2022-08-21T12:58:35;8.23;;;5.57;;
41233;SDS011;26968;42.686;23.352;2022-08-21T13:01:02;12.30;;;5.45;;
41233;SDS011;26968;42.686;23.352;2022-08-21T13:03:31;16.10;;;6.32;;
41233;SDS011;26968;42.686;23.352;2022-08-21T13:06:01;15.00;;;5.97;;
41233;SDS011;26968;42.686;23.352;2022-08-21T13:08:29;14.07;;;5.82;;
41233;SDS011;26968;42.686;23.352;2022-08-21T13:11:05;11.88;;;5.97;;
41233;SDS011;26968;42.686;23.352;2022-08-21T13:13:31;12.00;;;6.13;;
41233;SDS011;26968;42.686;23.352;2022-08-21T13:15:59;12.23;;;5.65;;
41233;SDS011;26968;42.686;23.352;2022-08-21T13:18:28;10.57;;;4.97;;
41233;SDS011;26968;42.686;23.352;2022-08-21T13:24:06;13.27;;;4.97;;
41233;SDS011;26968;42.686;23.352;2022-08-21T13:26:37;13.43;;;5.28;;
41233;SDS011;26968;42.686;23.352;2022-08-21T13:29:07;11.57;;;5.32;;
41233;SDS011;26968;42.686;23.352;2022-08-21T13:31:36;11.02;;;5.03;;
41233;SDS011;26968;42.686;23.352;2022-08-21T13:34:04;14.23;;;5.25;;
41233;SDS011;26968;42.686;23.352;2022-08-21T13:36:34;10.32;;;4.88;;
41233;SDS011;26968;42.686;23.352;2022-08-21T13:39:04;13.50;;;5.72;;
41233;SDS011;26968;42.686;23.352;2022-08-21T13:41:36;12.10;;;5.35;;
41233;SDS011;26968;42.686;23.352;2022-08-21T13:44:05;17.35;;;5.00;;
41233;SDS011;26968;42.686;23.352;2022-08-21T13:46:40;8.75;;;4.90;;
41233;SDS011;26968;42.686;23.352;2022-08-21T13:49:06;16.25;;;5.93;;
41233;SDS011;26968;42.686;23.352;2022-08-21T13:51:33;9.27;;;5.50;;
41233;SDS011;26968;42.686;23.352;2022-08-21T13:54:00;9.25;;;4.90;;
41233;SDS011;26968;42.686;23.352;2022-08-21T13:58:54;13.73;;;5.45;;
41233;SDS011;26968;42.686;23.352;2022-08-21T14:01:31;8.88;;;4.78;;
41233;SDS011;26968;42.686;23.352;2022-08-21T14:04:18;10.70;;;5.22;;
41233;SDS011;26968;42.686;23.352;2022-08-21T14:06:48;10.35;;;5.05;;
41233;SDS011;26968;42.686;23.352;2022-08-21T14:09:32;9.00;;;4.88;;
41233;SDS011;26968;42.686;23.352;2022-08-21T14:12:00;14.25;;;5.50;;
41233;SDS011;26968;42.686;23.352;2022-08-21T14:14:32;16.98;;;5.60;;
41233;SDS011;26968;42.686;23.352;2022-08-21T14:17:04;10.70;;;5.53;;
41233;SDS011;26968;42.686;23.352;2022-08-21T14:19:43;13.07;;;5.38;;
41233;SDS011;26968;42.686;23.352;2022-08-21T14:22:30;12.40;;;5.47;;
41233;SDS011;26968;42.686;23.352;2022-08-21T14:25:08;12.77;;;5.45;;
41233;SDS011;26968;42.686;23.352;2022-08-21T14:28:02;15.55;;;5.55;;
41233;SDS011;26968;42.686;23.352;2022-08-21T14:30:52;11.60;;;5.43;;
41233;SDS011;26968;42.686;23.352;2022-08-21T14:33:25;9.88;;;5.28;;
41233;SDS011;26968;42.686;23.352;2022-08-21T14:35:54;16.05;;;5.78;;
41233;SDS011;26968;42.686;23.352;2022-08-21T14:38:21;17.23;;;5.53;;
41233;SDS011;26968;42.686;23.352;2022-08-21T14:40:53;12.23;;;5.97;;
41233;SDS011;26968;42.686;23.352;2022-08-21T14:43:21;15.85;;;5.88;;
41233;SDS011;26968;42.686;23.352;2022-08-21T14:45:47;13.82;;;5.50;;
41233;SDS011;26968;42.686;23.352;2022-08-21T14:48:13;16.85;;;6.00;;
41233;SDS011;26968;42.686;23.352;2022-08-21T14:50:38;12.38;;;5.60;;
41233;SDS011;26968;42.686;23.352;2022-08-21T14:53:05;14.50;;;6.40;;
41233;SDS011;26968;42.686;23.352;2022-08-21T14:55:32;17.08;;;4.95;;
41233;SDS011;26968;42.686;23.352;2022-08-21T14:58:18;13.93;;;5.60;;
41233;SDS011;26968;42.686;23.352;2022-08-21T15:00:44;11.27;;;5.95;;
41233;SDS011;26968;42.686;23.352;2022-08-21T15:03:09;12.13;;;5.55;;
41233;SDS011;26968;42.686;23.352;2022-08-21T15:05:35;14.45;;;6.22;;
41233;SDS011;26968;42.686;23.352;2022-08-21T15:08:00;8.45;;;5.57;;
41233;SDS011;26968;42.686;23.352;2022-08-21T15:10:26;8.52;;;4.95;;
41233;SDS011;26968;42.686;23.352;2022-08-21T15:12:52;11.48;;;5.47;;
41233;SDS011;26968;42.686;23.352;2022-08-21T15:15:18;12.68;;;5.93;;
41233;SDS011;26968;42.686;23.352;2022-08-21T15:17:43;14.13;;;6.18;;
41233;SDS011;26968;42.686;23.352;2022-08-21T15:20:09;19.83;;;6.55;;
41233;SDS011;26968;42.686;23.352;2022-08-21T15:22:35;13.15;;;6.13;;
41233;SDS011;26968;42.686;23.352;2022-08-21T15:25:00;12.95;;;6.18;;
41233;SDS011;26968;42.686;23.352;2022-08-21T15:27:26;14.85;;;6.88;;
41233;SDS011;26968;42.686;23.352;2022-08-21T15:29:53;12.80;;;5.60;;
41233;SDS011;26968;42.686;23.352;2022-08-21T15:32:26;14.55;;;6.82;;
41233;SDS011;26968;42.686;23.352;2022-08-21T15:34:54;18.77;;;6.70;;
41233;SDS011;26968;42.686;23.352;2022-08-21T15:37:20;13.07;;;5.80;;
41233;SDS011;26968;42.686;23.352;2022-08-21T15:39:48;12.77;;;6.25;;
41233;SDS011;26968;42.686;23.352;2022-08-21T15:42:15;16.70;;;6.55;;
41233;SDS011;26968;42.686;23.352;2022-08-21T15:44:41;12.00;;;6.50;;
41233;SDS011;26968;42.686;23.352;2022-08-21T15:47:12;9.48;;;5.97;;
41233;SDS011;26968;42.686;23.352;2022-08-21T15:49:40;12.68;;;6.57;;
41233;SDS011;26968;42.686;23.352;2022-08-21T15:52:20;16.10;;;6.72;;
41233;SDS011;26968;42.686;23.352;2022-08-21T15:54:46;12.15;;;5.68;;
41233;SDS011;26968;42.686;23.352;2022-08-21T15:57:13;11.30;;;5.30;;
41233;SDS011;26968;42.686;23.352;2022-08-21T15:59:42;10.55;;;6.28;;